Time;durP1;ratioP1;P1;durP2;ratioP2;P2;SDS_P1;SDS_P2;PMS_P1;PMS_P2;Temp;Humidity;BMP_temperature;BMP_pressure;BME280_temperature;BME280_humidity;BME280_pressure;Samples;Min_cycle;Max_cycle;Signal;HPM_P1;HPM_P2
2021/11/11 00:01:46;;;;;;;25.68;9.53;;;;;;;2.08;90.46;100593.17;1721388;78;21037;-82
2021/11/11 00:04:16;;;;;;;26.45;10.45;;;;;;;2.06;90.28;100581.98;1699004;83;21261;-83
2021/11/11 00:06:41;;;;;;;31.15;11.33;;;;;;;2.09;90.19;100587.62;1710887;83;21571;-80
2021/11/11 00:09:07;;;;;;;22.32;9.33;;;;;;;2.08;90.18;100586.76;1721508;83;21074;-81
2021/11/11 00:11:34;;;;;;;26.77;11.63;;;;;;;2.01;90.05;100584.83;1721025;83;20997;-82
2021/11/11 00:14:00;;;;;;;29.35;10.50;;;;;;;2.03;89.84;100589.60;1719467;83;21040;-82
2021/11/11 00:16:27;;;;;;;27.48;11.30;;;;;;;2.05;90.17;100592.19;1721030;83;21033;-82
2021/11/11 00:18:54;;;;;;;31.23;11.50;;;;;;;2.06;89.99;100589.69;1719815;83;21015;-80
2021/11/11 00:21:21;;;;;;;22.85;9.53;;;;;;;2.11;90.13;100591.11;1714856;83;21025;-79
2021/11/11 00:23:48;;;;;;;27.32;12.10;;;;;;;2.10;90.15;100595.80;1715702;83;21007;-81
2021/11/11 00:26:15;;;;;;;29.72;12.33;;;;;;;2.13;90.18;100597.16;1721116;83;21004;-82
2021/11/11 00:28:41;;;;;;;29.75;11.55;;;;;;;2.18;90.40;100596.50;1722117;83;21088;-82
2021/11/11 00:31:08;;;;;;;32.95;12.40;;;;;;;2.21;90.52;100591.91;1715862;83;20994;-82
2021/11/11 00:33:34;;;;;;;31.20;12.23;;;;;;;2.24;90.70;100595.83;1717608;83;20999;-82
2021/11/11 00:36:01;;;;;;;29.27;12.23;;;;;;;2.28;90.27;100591.67;1721082;83;21559;-82
2021/11/11 00:38:27;;;;;;;32.85;12.53;;;;;;;2.27;91.00;100586.97;1716156;83;20998;-81
2021/11/11 00:40:53;;;;;;;29.18;11.90;;;;;;;2.35;90.22;100589.78;1717520;83;21000;-82
2021/11/11 00:43:20;;;;;;;32.63;11.97;;;;;;;2.37;90.51;100586.85;1715630;83;21509;-83
2021/11/11 00:45:47;;;;;;;34.35;13.18;;;;;;;2.37;90.48;100586.85;1697368;83;21082;-81
2021/11/11 00:48:13;;;;;;;31.70;12.55;;;;;;;2.40;90.85;100583.08;1719822;83;21037;-81
2021/11/11 00:50:40;;;;;;;30.68;13.03;;;;;;;2.44;90.86;100585.34;1721815;83;20940;-82
2021/11/11 00:53:07;;;;;;;33.73;14.03;;;;;;;2.43;90.74;100585.77;1717008;83;21574;-82
2021/11/11 00:55:37;;;;;;;33.28;13.03;;;;;;;2.44;90.54;100582.77;1711433;83;21061;-82
2021/11/11 00:58:08;;;;;;;28.98;12.13;;;;;;;2.40;90.12;100584.36;1724292;83;21043;-82
2021/11/11 01:00:37;;;;;;;30.02;11.85;;;;;;;2.39;89.79;100586.48;1722936;83;20987;-82
2021/11/11 01:03:06;;;;;;;31.12;13.22;;;;;;;2.35;90.37;100588.08;1724403;83;21023;-82
2021/11/11 01:05:33;;;;;;;27.90;11.30;;;;;;;2.33;90.32;100584.59;1724363;83;21129;-81
2021/11/11 01:08:00;;;;;;;28.65;11.10;;;;;;;2.31;90.91;100587.52;1725951;83;21023;-82
2021/11/11 01:10:27;;;;;;;27.70;10.55;;;;;;;2.33;89.60;100586.30;1711683;83;20995;-81
2021/11/11 01:12:55;;;;;;;29.63;11.33;;;;;;;2.28;90.73;100590.39;1726915;83;21027;-82
2021/11/11 01:15:30;;;;;;;29.40;10.60;;;;;;;2.32;90.02;100587.10;1712916;83;20970;-83
2021/11/11 01:18:00;;;;;;;26.68;10.55;;;;;;;2.34;90.34;100588.02;1689057;83;21554;-82
2021/11/11 01:20:27;;;;;;;31.82;11.38;;;;;;;2.39;89.72;100587.35;1723199;83;20991;-81
2021/11/11 01:22:55;;;;;;;29.87;11.45;;;;;;;2.33;90.32;100583.73;1722444;83;21034;-83
2021/11/11 01:25:25;;;;;;;27.00;11.10;;;;;;;2.36;90.39;100583.81;1712972;83;21506;-82
2021/11/11 01:27:54;;;;;;;25.97;11.18;;;;;;;2.38;90.32;100574.46;1715209;83;21045;-80
2021/11/11 01:30:23;;;;;;;22.13;9.95;;;;;;;2.42;89.84;100581.44;1709980;83;21038;-80
2021/11/11 01:32:51;;;;;;;30.55;12.78;;;;;;;2.46;89.86;100583.69;1719830;83;21049;-82
2021/11/11 01:35:18;;;;;;;27.00;10.72;;;;;;;2.43;89.85;100583.58;1725935;83;20991;-81
2021/11/11 01:37:45;;;;;;;23.62;10.30;;;;;;;2.45;89.96;100587.06;1719793;83;21025;-82
2021/11/11 01:40:15;;;;;;;23.62;8.63;;;;;;;2.43;89.64;100587.43;1715872;83;21015;-82
2021/11/11 01:42:50;;;;;;;22.32;8.85;;;;;;;2.39;89.50;100581.36;1695633;83;21082;-80
2021/11/11 01:45:23;;;;;;;19.75;8.30;;;;;;;2.41;89.30;100583.95;1712530;83;21057;-81
2021/11/11 01:47:51;;;;;;;19.90;8.58;;;;;;;2.36;88.85;100586.37;1728418;83;21041;-81
2021/11/11 01:50:18;;;;;;;24.32;9.90;;;;;;;2.33;88.71;100582.02;1729698;83;20989;-82
2021/11/11 01:52:46;;;;;;;17.95;8.68;;;;;;;2.25;88.76;100579.63;1723565;83;21037;-82
2021/11/11 01:55:12;;;;;;;23.38;10.28;;;;;;;2.24;88.87;100587.27;1725094;83;20980;-82
2021/11/11 01:57:42;;;;;;;20.80;10.00;;;;;;;2.19;88.47;100583.28;1730828;83;21056;-81
2021/11/11 02:00:19;;;;;;;23.27;10.78;;;;;;;2.12;88.53;100586.45;1729799;83;21525;-80
2021/11/11 02:02:45;;;;;;;21.10;7.85;;;;;;;2.03;88.69;100587.03;1721892;83;21066;-81
2021/11/11 02:05:13;;;;;;;22.98;9.78;;;;;;;2.01;88.92;100586.50;1702404;83;20998;-82
2021/11/11 02:07:42;;;;;;;19.40;9.45;;;;;;;1.99;88.88;100580.06;1719069;83;21041;-81
2021/11/11 02:10:10;;;;;;;23.18;8.70;;;;;;;1.97;88.51;100580.00;1731825;83;20990;-80
2021/11/11 02:12:39;;;;;;;28.65;10.13;;;;;;;1.95;88.68;100584.21;1713084;80;21004;-83
2021/11/11 02:15:08;;;;;;;20.52;8.50;;;;;;;1.93;89.39;100582.39;1733125;80;21057;-81
2021/11/11 02:17:35;;;;;;;25.37;10.00;;;;;;;1.94;89.08;100582.87;1694958;83;21534;-82
2021/11/11 02:20:10;;;;;;;21.12;8.75;;;;;;;1.94;89.15;100578.60;1728920;83;20995;-82
2021/11/11 02:22:58;;;;;;;25.82;9.55;;;;;;;1.95;89.97;100576.91;1726763;80;21012;-80
2021/11/11 02:25:28;;;;;;;23.83;9.30;;;;;;;1.95;89.39;100578.19;1730430;83;21002;-80
2021/11/11 02:28:01;;;;;;;23.15;9.58;;;;;;;1.93;89.45;100580.72;1701946;83;21023;-80
2021/11/11 02:30:30;;;;;;;27.87;9.60;;;;;;;1.89;89.72;100576.31;1699475;83;20983;-81
2021/11/11 02:33:01;;;;;;;27.55;10.55;;;;;;;1.92;89.69;100585.38;1712668;83;21042;-81
2021/11/11 02:35:28;;;;;;;23.10;10.32;;;;;;;1.89;90.02;100594.66;1727028;83;20983;-82
2021/11/11 02:38:00;;;;;;;21.20;9.78;;;;;;;1.89;89.63;100592.09;1718932;83;20987;-79
2021/11/11 02:40:29;;;;;;;30.55;10.25;;;;;;;1.88;89.98;100588.66;1726103;83;21276;-80
2021/11/11 02:42:55;;;;;;;23.67;9.93;;;;;;;1.88;89.56;100578.82;1731507;82;21065;-81
2021/11/11 02:45:32;;;;;;;21.62;8.93;;;;;;;1.86;89.82;100581.74;1722450;83;21034;-82
2021/11/11 02:48:02;;;;;;;24.05;9.55;;;;;;;1.89;89.61;100584.01;1721635;83;21849;-81
2021/11/11 02:50:31;;;;;;;24.32;10.10;;;;;;;1.83;89.39;100586.75;1720205;82;20971;-82
2021/11/11 02:53:00;;;;;;;21.87;9.18;;;;;;;1.77;89.06;100581.89;1705462;83;21522;-82
2021/11/11 02:55:27;;;;;;;25.50;9.68;;;;;;;1.74;89.59;100588.19;1730182;82;20987;-83
2021/11/11 02:57:57;;;;;;;21.40;8.88;;;;;;;1.74;88.79;100589.89;1731977;82;21300;-82
2021/11/11 03:00:31;;;;;;;22.32;8.93;;;;;;;1.68;88.86;100587.98;1730372;83;21013;-80
2021/11/11 03:02:59;;;;;;;20.40;9.03;;;;;;;1.63;89.39;100586.93;1720831;83;21046;-81
2021/11/11 03:05:31;;;;;;;26.73;9.20;;;;;;;1.62;89.73;100586.91;1727993;83;21072;-81
2021/11/11 03:07:58;;;;;;;21.35;9.23;;;;;;;1.59;89.50;100587.27;1726451;82;21066;-81
2021/11/11 03:10:29;;;;;;;19.65;9.00;;;;;;;1.57;89.46;100581.59;1717496;83;20955;-82
2021/11/11 03:12:57;;;;;;;24.52;9.35;;;;;;;1.53;89.40;100577.18;1725496;83;20987;-83
2021/11/11 03:15:29;;;;;;;23.32;9.80;;;;;;;1.56;89.22;100587.55;1733062;83;21644;-82
2021/11/11 03:17:56;;;;;;;22.80;8.70;;;;;;;1.47;90.39;100580.39;1732913;82;21474;-80
2021/11/11 03:20:23;;;;;;;20.17;8.93;;;;;;;1.53;89.58;100587.05;1731622;82;21070;-80
2021/11/11 03:22:50;;;;;;;23.70;8.60;;;;;;;1.50;89.67;100582.22;1724187;82;21535;-82
2021/11/11 03:25:23;;;;;;;21.62;8.23;;;;;;;1.48;89.74;100581.30;1720984;83;21044;-80
2021/11/11 03:27:51;;;;;;;23.65;7.97;;;;;;;1.43;90.09;100572.55;1711076;83;21026;-80
2021/11/11 03:30:21;;;;;;;21.75;8.03;;;;;;;1.47;89.76;100576.97;1730806;83;21490;-81
2021/11/11 03:32:51;;;;;;;18.00;7.45;;;;;;;1.47;89.57;100578.25;1701100;83;21022;-80
2021/11/11 03:35:20;;;;;;;18.52;7.40;;;;;;;1.45;89.96;100577.33;1731235;82;21070;-81
2021/11/11 03:37:50;;;;;;;20.10;9.48;;;;;;;1.44;89.49;100576.88;1731599;82;21004;-82
2021/11/11 03:40:22;;;;;;;25.08;8.88;;;;;;;1.46;89.82;100588.05;1729241;83;21035;-80
2021/11/11 03:42:50;;;;;;;19.82;8.83;;;;;;;1.47;90.16;100587.22;1721880;82;21528;-79
2021/11/11 03:45:20;;;;;;;20.08;8.08;;;;;;;1.49;89.83;100586.86;1720784;83;21020;-79
2021/11/11 03:47:48;;;;;;;23.65;8.83;;;;;;;1.49;89.91;100589.05;1721086;83;21127;-80
2021/11/11 03:50:17;;;;;;;20.30;9.53;;;;;;;1.51;89.77;100589.07;1713552;83;21019;-81
2021/11/11 03:52:45;;;;;;;24.18;9.35;;;;;;;1.55;89.64;100596.95;1673546;84;21020;-82
2021/11/11 03:55:14;;;;;;;24.10;9.00;;;;;;;1.54;89.93;100585.34;1707836;83;20988;-82
2021/11/11 03:57:42;;;;;;;21.55;8.98;;;;;;;1.51;89.79;100585.23;1716812;83;21060;-82
2021/11/11 04:00:13;;;;;;;28.25;9.00;;;;;;;1.52;89.47;100589.55;1716852;83;21047;-82
2021/11/11 04:02:46;;;;;;;20.12;7.60;;;;;;;1.54;89.42;100582.78;1716126;83;21021;-82
2021/11/11 04:05:15;;;;;;;25.55;8.68;;;;;;;1.50;89.15;100586.06;1698971;83;21647;-80
2021/11/11 04:07:43;;;;;;;22.42;7.80;;;;;;;1.50;88.48;100580.94;1705834;83;21061;-79
2021/11/11 04:10:11;;;;;;;19.92;7.20;;;;;;;1.45;88.55;100575.63;1710338;83;21042;-80
2021/11/11 04:12:39;;;;;;;23.30;7.72;;;;;;;1.43;89.00;100573.83;1713216;83;21063;-79
2021/11/11 04:15:07;;;;;;;23.80;8.58;;;;;;;1.42;88.99;100571.69;1722015;83;21050;-82
2021/11/11 04:17:34;;;;;;;23.30;8.88;;;;;;;1.45;88.73;100570.91;1722919;83;21007;-80
2021/11/11 04:20:00;;;;;;;17.87;8.13;;;;;;;1.41;89.27;100568.65;1720131;83;21078;-81
2021/11/11 04:22:27;;;;;;;18.90;8.18;;;;;;;1.42;89.24;100567.84;1721709;83;21030;-79
2021/11/11 04:24:55;;;;;;;22.22;8.65;;;;;;;1.47;89.37;100563.73;1718475;83;21000;-80
2021/11/11 04:27:30;;;;;;;22.27;9.35;;;;;;;1.50;89.51;100565.14;1695456;83;21498;-80
2021/11/11 04:32:36;;;;;;;24.45;9.43;;;;;;;1.57;89.56;100562.37;1718440;82;21457;-80
2021/11/11 04:35:03;;;;;;;20.35;8.33;;;;;;;1.59;89.46;100565.86;1720089;83;21527;-79
2021/11/11 04:40:36;;;;;;;22.85;8.88;;;;;;;1.67;89.84;100558.44;1610707;87;22460;-80
2021/11/11 04:43:02;;;;;;;26.15;10.13;;;;;;;1.71;89.76;100562.46;1711451;82;21541;-82
2021/11/11 04:46:03;;;;;;;21.30;9.58;;;;;;;1.80;89.82;100555.48;1702138;83;21015;-82
2021/11/11 05:03:54;;;;;;;19.77;8.60;;;;;;;1.76;88.78;100557.06;1723254;83;21068;-80
2021/11/11 05:06:20;;;;;;;23.73;8.03;;;;;;;1.74;88.86;100560.40;1719283;82;21134;-81
2021/11/11 05:08:49;;;;;;;19.25;8.00;;;;;;;1.68;88.27;100558.49;1713041;83;20990;-81
2021/11/11 05:11:17;;;;;;;21.50;8.58;;;;;;;1.65;88.64;100560.08;1715813;83;20979;-80
2021/11/11 05:13:44;;;;;;;22.62;8.28;;;;;;;1.66;88.73;100557.98;1719774;82;21057;-80
2021/11/11 05:16:12;;;;;;;20.25;9.08;;;;;;;1.65;89.11;100558.41;1713198;83;21020;-80
2021/11/11 05:18:39;;;;;;;19.52;7.95;;;;;;;1.70;89.24;100553.01;1723561;83;21514;-81
2021/11/11 05:21:06;;;;;;;22.07;8.45;;;;;;;1.74;89.23;100558.70;1716337;83;21022;-80
2021/11/11 05:23:34;;;;;;;26.80;9.88;;;;;;;1.76;89.58;100557.06;1707385;83;21542;-80
2021/11/11 05:26:01;;;;;;;23.35;9.15;;;;;;;1.83;89.50;100555.98;1723696;83;21022;-80
2021/11/11 05:28:27;;;;;;;18.07;8.58;;;;;;;1.90;89.89;100556.66;1711779;83;21097;-79
2021/11/11 05:30:55;;;;;;;21.48;9.05;;;;;;;1.96;89.48;100555.58;1723388;83;21074;-82
2021/11/11 05:33:21;;;;;;;17.45;8.23;;;;;;;1.94;88.90;100551.67;1709389;83;21060;-82
2021/11/11 05:35:48;;;;;;;23.02;8.98;;;;;;;1.95;88.88;100553.81;1717281;83;21050;-83
2021/11/11 05:38:15;;;;;;;19.62;8.68;;;;;;;1.90;88.78;100560.09;1723484;83;21020;-82
2021/11/11 05:40:42;;;;;;;19.40;8.45;;;;;;;1.87;89.01;100557.44;1725095;83;21030;-82
2021/11/11 05:43:10;;;;;;;19.90;8.65;;;;;;;1.88;89.38;100553.17;1718108;82;21568;-81
2021/11/11 05:45:36;;;;;;;63.20;23.20;;;;;;;1.85;88.84;100555.62;1723949;83;21003;-83
2021/11/11 05:48:04;;;;;;;23.57;10.50;;;;;;;1.85;89.26;100555.62;1715639;83;21534;-82
2021/11/11 05:50:32;;;;;;;18.40;7.95;;;;;;;1.88;88.98;100557.02;1718102;83;20995;-82
2021/11/11 05:53:00;;;;;;;17.50;7.90;;;;;;;1.78;88.47;100556.70;1717696;83;20996;-82
2021/11/11 05:55:27;;;;;;;21.50;9.45;;;;;;;1.74;88.31;100563.83;1722402;82;21030;-82
2021/11/11 05:57:53;;;;;;;28.47;10.78;;;;;;;1.68;88.30;100558.91;1724509;83;21027;-81
2021/11/11 06:00:21;;;;;;;16.87;8.03;;;;;;;1.66;88.97;100572.95;1721385;83;21011;-82
2021/11/11 06:02:50;;;;;;;17.23;7.58;;;;;;;1.68;88.38;100569.17;1720521;83;21514;-81
2021/11/11 06:05:19;;;;;;;22.73;8.23;;;;;;;1.63;88.58;100570.69;1720464;83;21029;-81
2021/11/11 06:07:48;;;;;;;23.65;8.98;;;;;;;1.65;89.15;100563.53;1720248;83;20982;-82
2021/11/11 06:10:15;;;;;;;22.58;9.53;;;;;;;1.70;89.33;100568.81;1713660;83;20984;-80
2021/11/11 06:12:41;;;;;;;21.17;8.83;;;;;;;1.76;89.76;100573.72;1721549;83;21038;-83
2021/11/11 06:15:09;;;;;;;25.05;8.68;;;;;;;1.85;89.22;100569.34;1714613;83;20986;-83
2021/11/11 06:17:35;;;;;;;20.62;8.15;;;;;;;1.87;89.26;100565.52;1718793;83;21058;-82
2021/11/11 06:20:15;;;;;;;25.05;9.33;;;;;;;1.94;89.43;100570.91;1705697;83;21022;-82
2021/11/11 06:22:34;;;;;;;20.62;8.98;;;;;;;2.02;89.20;100567.31;1716780;83;21080;-83
2021/11/11 06:25:01;;;;;;;26.20;9.35;;;;;;;2.06;89.25;100580.70;1714931;83;21069;-81
2021/11/11 06:27:28;;;;;;;22.40;9.50;;;;;;;2.12;89.17;100571.92;1714069;82;21569;-82
2021/11/11 06:29:54;;;;;;;20.92;8.78;;;;;;;2.12;88.72;100571.92;1721287;83;21019;-84
2021/11/11 06:32:21;;;;;;;20.17;8.63;;;;;;;2.08;88.85;100566.23;1705959;83;21018;-82
2021/11/11 06:34:48;;;;;;;20.80;9.38;;;;;;;2.09;88.60;100569.28;1699601;84;21101;-81
2021/11/11 06:37:14;;;;;;;21.00;9.15;;;;;;;2.08;88.23;100566.23;1687985;83;20972;-82
2021/11/11 06:39:40;;;;;;;28.00;11.95;;;;;;;2.03;88.60;100566.52;1717001;83;21022;-82
2021/11/11 06:42:07;;;;;;;19.00;7.92;;;;;;;1.97;88.49;100563.75;1715111;83;21049;-81
2021/11/11 06:44:33;;;;;;;22.65;8.45;;;;;;;1.96;88.45;100568.41;1721990;83;21066;-82
2021/11/11 06:47:00;;;;;;;21.05;8.70;;;;;;;2.01;88.45;100565.59;1717562;83;20992;-82
2021/11/11 06:49:27;;;;;;;24.45;10.00;;;;;;;2.02;88.26;100564.75;1726096;83;21047;-82
2021/11/11 06:51:54;;;;;;;29.50;10.93;;;;;;;2.01;88.02;100561.75;1717549;83;21002;-82
2021/11/11 06:54:23;;;;;;;19.80;8.65;;;;;;;1.97;88.05;100560.77;1722201;83;21034;-82
2021/11/11 06:56:49;;;;;;;24.65;9.63;;;;;;;2.02;88.04;100562.61;1717890;83;21062;-81
2021/11/11 06:59:16;;;;;;;20.75;8.80;;;;;;;1.98;88.00;100562.49;1715385;83;21439;-82
2021/11/11 07:01:42;;;;;;;24.67;9.88;;;;;;;1.97;87.77;100556.05;1724078;83;21082;-82
2021/11/11 07:04:10;;;;;;;26.07;10.65;;;;;;;1.94;87.85;100554.23;1725021;83;21535;-81
2021/11/11 07:06:36;;;;;;;27.93;10.68;;;;;;;1.93;88.07;100547.77;1724482;83;21641;-82
2021/11/11 07:09:03;;;;;;;22.55;10.18;;;;;;;1.88;87.80;100555.32;1721858;83;21043;-81
2021/11/11 07:11:29;;;;;;;24.98;9.55;;;;;;;1.82;87.48;100546.14;1721736;83;21033;-81
2021/11/11 07:13:56;;;;;;;26.33;9.60;;;;;;;1.72;87.86;100539.83;1718373;82;21125;-81
2021/11/11 07:16:23;;;;;;;20.50;9.00;;;;;;;1.77;88.22;100542.15;1722845;83;21062;-83
2021/11/11 07:18:50;;;;;;;22.50;9.68;;;;;;;1.75;87.59;100543.80;1720360;83;21022;-84
2021/11/11 07:21:17;;;;;;;20.82;9.13;;;;;;;1.73;87.64;100539.02;1723453;82;21534;-81
2021/11/11 07:23:44;;;;;;;21.97;8.58;;;;;;;1.73;87.77;100539.41;1721282;83;21495;-81
2021/11/11 07:26:10;;;;;;;19.85;8.68;;;;;;;1.82;87.84;100530.76;1722338;82;21863;-80
2021/11/11 07:28:37;;;;;;;21.30;9.00;;;;;;;1.77;87.85;100525.48;1723819;83;21530;-80
2021/11/11 07:31:03;;;;;;;19.10;7.72;;;;;;;1.73;87.62;100521.08;1723075;83;21069;-79
2021/11/11 07:33:30;;;;;;;18.67;7.90;;;;;;;1.74;87.77;100520.23;1712292;83;21518;-79
2021/11/11 07:35:57;;;;;;;24.27;7.95;;;;;;;1.75;88.05;100511.74;1723870;82;21090;-79
2021/11/11 07:38:23;;;;;;;18.30;7.92;;;;;;;1.88;88.65;100511.72;1724465;82;21016;-80
2021/11/11 07:40:50;;;;;;;19.57;7.67;;;;;;;1.90;88.30;100505.37;1723904;82;21070;-79
2021/11/11 07:43:18;;;;;;;23.40;7.80;;;;;;;1.99;87.86;100505.67;1725901;82;21201;-80
2021/11/11 07:45:47;;;;;;;20.00;8.13;;;;;;;2.02;87.64;100504.47;1730277;83;21004;-82
2021/11/11 07:48:14;;;;;;;19.50;7.95;;;;;;;2.06;87.26;100503.75;1729530;83;20987;-80
2021/11/11 07:50:42;;;;;;;17.07;7.67;;;;;;;2.09;86.78;100510.27;1718930;81;20991;-82
2021/11/11 07:53:10;;;;;;;14.05;7.15;;;;;;;2.03;86.27;100505.33;1728264;81;21027;-83
2021/11/11 07:55:40;;;;;;;21.68;8.53;;;;;;;2.07;86.88;100503.33;1726889;82;20987;-83
2021/11/11 07:58:07;;;;;;;15.78;7.12;;;;;;;2.17;87.18;100502.40;1733830;82;21015;-83
2021/11/11 08:00:35;;;;;;;20.48;7.85;;;;;;;2.18;85.76;100501.56;1719533;83;20992;-82
2021/11/11 08:03:01;;;;;;;16.35;5.87;;;;;;;2.19;85.80;100502.45;1732111;82;21042;-84
2021/11/11 08:05:28;;;;;;;16.67;6.40;;;;;;;2.11;85.58;100493.23;1733294;82;20972;-83
2021/11/11 08:07:55;;;;;;;15.05;7.00;;;;;;;2.12;85.63;100493.67;1727942;82;21067;-82
2021/11/11 08:10:22;;;;;;;14.80;6.25;;;;;;;2.15;85.96;100486.09;1716185;82;21053;-85
2021/11/11 08:12:50;;;;;;;18.35;7.60;;;;;;;2.27;86.21;100488.55;1725714;83;21018;-84
2021/11/11 08:15:17;;;;;;;15.98;7.20;;;;;;;2.33;86.35;100482.35;1734873;83;20960;-85
2021/11/11 08:17:45;;;;;;;22.45;7.78;;;;;;;2.33;85.73;100483.64;1719882;82;21042;-83
2021/11/11 08:20:14;;;;;;;16.12;8.08;;;;;;;2.40;85.81;100481.69;1734009;83;21007;-84
2021/11/11 08:22:43;;;;;;;18.60;8.33;;;;;;;2.35;85.46;100483.27;1675639;84;21079;-84
2021/11/11 08:25:10;;;;;;;21.17;8.70;;;;;;;2.38;85.93;100475.64;1664094;85;21035;-84
2021/11/11 08:27:40;;;;;;;18.77;8.08;;;;;;;2.42;85.90;100476.19;1700617;84;21475;-83
2021/11/11 08:30:10;;;;;;;17.15;8.18;;;;;;;2.44;85.43;100483.53;1679142;85;21010;-83
2021/11/11 08:32:39;;;;;;;19.92;7.28;;;;;;;2.45;85.12;100481.44;1697948;83;21037;-83
2021/11/11 08:35:06;;;;;;;14.78;6.97;;;;;;;2.52;85.05;100482.05;1687847;84;21034;-84
2021/11/11 08:37:33;;;;;;;18.32;7.62;;;;;;;2.56;84.89;100480.45;1667945;85;21024;-84
2021/11/11 08:39:59;;;;;;;14.87;7.15;;;;;;;2.55;84.60;100486.02;1683732;80;21004;-84
2021/11/11 08:42:26;;;;;;;14.55;7.15;;;;;;;2.68;84.59;100486.36;1672501;85;21134;-84
2021/11/11 08:44:53;;;;;;;35.48;17.27;;;;;;;2.72;84.21;100488.19;1670283;85;20995;-84
2021/11/11 08:47:21;;;;;;;17.60;7.17;;;;;;;2.74;83.88;100485.25;1734154;82;21034;-84
2021/11/11 08:49:52;;;;;;;16.97;7.17;;;;;;;2.79;83.37;100483.70;1731691;79;20971;-84
2021/11/11 08:52:20;;;;;;;16.70;7.47;;;;;;;2.80;83.83;100481.58;1731179;83;21013;-84
2021/11/11 08:54:49;;;;;;;17.37;7.17;;;;;;;2.81;83.33;100480.77;1720699;83;21062;-84
2021/11/11 08:57:16;;;;;;;16.02;7.65;;;;;;;2.85;83.18;100488.15;1727993;79;21048;-85
2021/11/11 08:59:42;;;;;;;20.43;8.73;;;;;;;2.79;82.70;100474.72;1730698;83;21348;-84
2021/11/11 09:02:10;;;;;;;19.30;8.50;;;;;;;2.91;83.61;100472.48;1729285;83;20974;-83
2021/11/11 09:04:37;;;;;;;18.25;8.63;;;;;;;2.95;83.47;100470.87;1731894;82;21008;-84
2021/11/11 09:07:04;;;;;;;31.10;12.53;;;;;;;2.97;83.00;100466.23;1728929;81;21054;-81
2021/11/11 09:09:32;;;;;;;36.53;16.02;;;;;;;3.01;82.49;100468.89;1723285;83;20979;-83
2021/11/11 09:11:58;;;;;;;24.23;13.00;;;;;;;2.92;82.66;100468.20;1730741;83;21404;-85
2021/11/11 09:14:25;;;;;;;19.30;9.15;;;;;;;2.92;82.23;100466.50;1731688;83;21007;-85
2021/11/11 09:16:51;;;;;;;19.20;8.95;;;;;;;2.91;82.66;100458.36;1732933;79;21058;-84
2021/11/11 09:19:18;;;;;;;18.45;8.13;;;;;;;2.99;82.74;100453.43;1731974;83;20999;-83
2021/11/11 09:21:45;;;;;;;21.17;7.62;;;;;;;2.93;82.88;100452.84;1730766;83;21074;-83
2021/11/11 09:24:11;;;;;;;17.52;8.35;;;;;;;2.91;82.65;100446.80;1731752;80;21082;-83
2021/11/11 09:26:39;;;;;;;20.55;8.40;;;;;;;2.95;83.00;100455.04;1731564;83;21466;-82
2021/11/11 09:29:07;;;;;;;17.20;8.13;;;;;;;2.95;82.73;100447.75;1730766;83;20979;-83
2021/11/11 09:31:36;;;;;;;18.42;7.22;;;;;;;3.08;83.51;100439.95;1729227;83;21033;-84
2021/11/11 09:34:05;;;;;;;16.50;7.83;;;;;;;3.17;83.54;100435.06;1727400;82;21512;-87
2021/11/11 09:36:32;;;;;;;19.67;9.03;;;;;;;3.33;83.84;100433.77;1720076;83;21011;-86
2021/11/11 09:39:02;;;;;;;20.20;9.33;;;;;;;3.48;83.80;100429.02;1730896;83;21046;-85
2021/11/11 09:41:29;;;;;;;30.95;12.68;;;;;;;3.43;82.83;100429.30;1730333;82;21498;-83
2021/11/11 09:43:55;;;;;;;29.15;12.18;;;;;;;3.55;82.95;100421.89;1713694;83;21599;-85
2021/11/11 09:46:22;;;;;;;21.23;10.48;;;;;;;3.57;82.95;100420.22;1713248;81;21090;-85
2021/11/11 09:48:50;;;;;;;21.85;10.23;;;;;;;3.60;82.89;100420.70;1723927;80;20960;-85
2021/11/11 09:51:21;;;;;;;19.82;8.60;;;;;;;3.59;82.90;100409.56;1723657;83;21014;-86
2021/11/11 09:59:03;;;;;;;19.52;8.55;;;;;;;3.72;82.62;100392.73;1718500;83;20999;-85
2021/11/11 10:01:30;;;;;;;21.50;8.93;;;;;;;3.65;81.94;100389.98;1719899;83;21055;-84
2021/11/11 10:03:57;;;;;;;20.32;8.63;;;;;;;3.56;82.14;100386.75;1716742;83;21035;-85
2021/11/11 10:06:26;;;;;;;16.42;7.78;;;;;;;3.44;82.99;100382.61;1700752;83;21052;-85
2021/11/11 10:08:57;;;;;;;17.77;7.95;;;;;;;3.51;83.30;100372.94;1720698;83;20909;-84
2021/11/11 10:11:37;;;;;;;22.10;9.20;;;;;;;3.57;82.94;100370.50;1723504;83;20976;-85
2021/11/11 10:14:13;;;;;;;21.37;8.90;;;;;;;3.65;82.71;100359.12;1715782;83;21045;-84
2021/11/11 10:16:51;;;;;;;19.12;8.30;;;;;;;3.77;83.32;100351.25;1713764;83;21012;-85
2021/11/11 10:19:19;;;;;;;19.25;9.25;;;;;;;3.88;83.53;100343.79;1709969;83;21353;-84
2021/11/11 10:21:58;;;;;;;19.67;9.83;;;;;;;4.02;83.28;100340.23;1723024;83;21030;-84
2021/11/11 10:24:45;;;;;;;22.17;10.65;;;;;;;4.13;83.17;100342.59;1720455;83;21006;-85
2021/11/11 10:27:28;;;;;;;22.45;9.38;;;;;;;4.04;82.38;100327.37;1724246;83;21062;-84
2021/11/11 10:30:04;;;;;;;21.42;9.33;;;;;;;4.06;82.44;100327.88;1719050;83;20965;-84
2021/11/11 10:32:42;;;;;;;20.82;9.73;;;;;;;4.05;82.28;100323.97;1720989;83;21037;-83
2021/11/11 10:35:17;;;;;;;19.98;9.18;;;;;;;3.97;82.60;100325.09;1714019;83;20999;-84
2021/11/11 10:37:51;;;;;;;20.82;9.18;;;;;;;3.97;82.67;100325.95;1722541;83;20941;-84
2021/11/11 10:40:25;;;;;;;19.70;8.40;;;;;;;4.00;82.23;100322.60;1702719;83;21038;-84
2021/11/11 10:42:55;;;;;;;24.45;11.48;;;;;;;3.97;82.13;100313.09;1672338;83;28324;-85
2021/11/11 10:45:25;;;;;;;32.25;13.25;;;;;;;4.05;82.20;100318.41;1727240;82;21057;-84
2021/11/11 10:47:57;;;;;;;38.08;17.10;;;;;;;3.90;82.83;100315.50;1730320;80;20991;-85
2021/11/11 10:50:29;;;;;;;17.87;8.53;;;;;;;3.98;83.31;100313.98;1732335;80;21015;-86
2021/11/11 10:52:59;;;;;;;20.68;8.03;;;;;;;4.03;83.02;100320.08;1734984;82;21005;-84
2021/11/11 10:55:32;;;;;;;17.57;8.40;;;;;;;4.07;82.96;100308.14;1733749;81;21015;-83
2021/11/11 10:58:05;;;;;;;19.17;9.40;;;;;;;4.15;83.02;100306.17;1722401;83;20990;-84
2021/11/11 11:00:54;;;;;;;26.80;10.40;;;;;;;4.11;82.97;100304.37;1737131;83;21273;-85
2021/11/11 11:03:30;;;;;;;21.82;9.95;;;;;;;4.15;83.03;100298.45;1737327;83;21058;-85
2021/11/11 11:06:10;;;;;;;19.20;9.88;;;;;;;4.15;82.50;100304.88;1737362;81;20992;-86
2021/11/11 11:08:44;;;;;;;19.73;8.88;;;;;;;4.03;82.95;100300.77;1712843;82;21055;-86
2021/11/11 11:11:24;;;;;;;21.27;9.23;;;;;;;4.09;82.56;100294.89;1716638;83;21039;-85
2021/11/11 11:13:54;;;;;;;21.37;9.05;;;;;;;4.10;82.46;100287.20;1734495;83;20957;-85
2021/11/11 11:16:34;;;;;;;21.73;10.50;;;;;;;4.11;82.32;100274.77;1736667;83;20974;-85
2021/11/11 11:19:11;;;;;;;16.10;8.05;;;;;;;4.08;82.36;100274.73;1733170;79;21052;-86
2021/11/11 11:21:51;;;;;;;21.97;9.55;;;;;;;4.11;81.97;100279.92;1737349;83;21027;-87
2021/11/11 11:24:28;;;;;;;15.40;8.18;;;;;;;4.05;82.05;100266.94;1730266;83;21038;-86
2021/11/11 11:27:00;;;;;;;18.60;8.90;;;;;;;4.05;82.29;100268.22;1723104;83;20981;-85
2021/11/11 11:29:40;;;;;;;15.55;7.65;;;;;;;4.07;82.23;100265.25;1728163;83;21090;-84
2021/11/11 11:32:09;;;;;;;21.25;9.45;;;;;;;4.09;82.75;100262.30;1727669;83;20979;-85
2021/11/11 11:34:44;;;;;;;25.90;11.12;;;;;;;4.16;83.01;100258.16;1717594;80;21131;-91
2021/11/11 11:37:17;;;;;;;25.00;11.03;;;;;;;4.14;82.64;100261.98;1753122;81;21012;-83
2021/11/11 11:39:54;;;;;;;27.93;13.10;;;;;;;4.18;82.59;100267.63;1752902;82;21068;-85
2021/11/11 11:42:26;;;;;;;27.45;14.40;;;;;;;4.22;82.72;100259.56;1740581;81;21000;-85
2021/11/11 11:44:59;;;;;;;27.75;11.30;;;;;;;4.27;82.74;100257.06;1711529;83;20981;-85
2021/11/11 11:47:47;;;;;;;26.12;12.80;;;;;;;4.26;82.37;100252.73;1725220;82;20975;-85
2021/11/11 11:50:19;;;;;;;25.55;12.82;;;;;;;4.29;81.99;100255.38;1738849;82;20949;-85
2021/11/11 11:52:53;;;;;;;25.40;11.15;;;;;;;4.24;82.23;100256.59;1750753;81;21290;-83
2021/11/11 11:57:57;;;;;;;23.50;11.53;;;;;;;4.25;81.48;100252.30;1743363;82;21043;-84
2021/11/11 12:11:54;;;;;;;23.27;10.45;;;;;;;4.23;82.35;100248.41;1728107;82;20965;-84